createdAt,value
2019-03-23T00:02:15.481Z,95.20
2019-03-23T00:04:44.252Z,95.10
2019-03-23T00:07:13.193Z,94.20
2019-03-23T00:09:41.856Z,94.60
2019-03-23T00:12:10.484Z,94.30
2019-03-23T00:14:39.264Z,92.90
2019-03-23T00:17:07.902Z,93.10
2019-03-23T00:19:36.743Z,93.10
2019-03-23T00:22:05.598Z,92.20
2019-03-23T00:24:34.265Z,91.40
2019-03-23T00:27:03.127Z,92.10
2019-03-23T00:29:31.841Z,91.30
2019-03-23T00:32:00.711Z,91.10
2019-03-23T00:34:29.347Z,90.80
2019-03-23T00:36:57.970Z,90.60
2019-03-23T00:39:26.781Z,91.20
2019-03-23T00:41:55.597Z,91.20
2019-03-23T00:44:24.281Z,91.80
2019-03-23T00:46:52.949Z,91.50
2019-03-23T00:49:21.745Z,90.40
2019-03-23T00:51:50.380Z,90.70
2019-03-23T00:54:19.060Z,90.70
2019-03-23T00:56:47.995Z,90.50
2019-03-23T00:59:16.692Z,90.70
2019-03-23T01:01:45.340Z,90.50
2019-03-23T01:04:15.936Z,90.30
2019-03-23T01:06:52.123Z,90.10
2019-03-23T01:09:15.124Z,90.90
2019-03-23T01:11:43.947Z,90.00
2019-03-23T01:14:12.611Z,90.20
2019-03-23T01:16:41.320Z,90.80
2019-03-23T01:19:10.124Z,91.30
2019-03-23T01:21:38.985Z,91.00
2019-03-23T01:24:07.741Z,90.70
2019-03-23T01:26:36.383Z,90.40
2019-03-23T01:29:07.043Z,91.30
2019-03-23T01:31:35.691Z,92.10
2019-03-23T01:34:06.428Z,92.40
2019-03-23T01:36:35.445Z,92.00
2019-03-23T01:39:06.567Z,91.40
2019-03-23T01:41:35.217Z,91.80
2019-03-23T01:44:04.808Z,91.60
2019-03-23T01:46:33.452Z,90.60
2019-03-23T01:49:02.206Z,91.50
2019-03-23T01:51:30.840Z,90.70
2019-03-23T01:53:59.595Z,90.30
2019-03-23T01:56:28.433Z,90.70
2019-03-23T01:58:57.063Z,91.10
2019-03-23T02:01:25.725Z,90.10
2019-03-23T02:03:54.518Z,91.80
2019-03-23T02:06:23.159Z,91.20
2019-03-23T02:08:51.838Z,91.60
2019-03-23T02:11:20.694Z,91.50
2019-03-23T02:13:51.130Z,92.10
2019-03-23T02:16:19.930Z,92.00
2019-03-23T02:18:48.547Z,92.40
2019-03-23T02:21:17.411Z,93.50
2019-03-23T02:23:46.265Z,93.00
2019-03-23T02:26:14.934Z,93.40
2019-03-23T02:28:43.773Z,94.00
2019-03-23T02:31:12.419Z,93.60
2019-03-23T02:33:42.172Z,92.90
2019-03-23T02:36:10.920Z,94.10
2019-03-23T02:38:39.579Z,93.80
2019-03-23T02:41:08.267Z,93.00
2019-03-23T02:43:37.117Z,92.60
2019-03-23T02:46:05.782Z,93.90
2019-03-23T02:48:34.471Z,93.50
2019-03-23T02:51:03.329Z,93.90
2019-03-23T02:53:31.946Z,92.50
2019-03-23T02:56:00.617Z,93.40
2019-03-23T02:58:29.503Z,92.60
2019-03-23T03:00:58.231Z,93.10
2019-03-23T03:03:26.860Z,92.80
2019-03-23T03:05:55.594Z,92.50
2019-03-23T03:08:24.219Z,92.50
2019-03-23T03:10:52.869Z,91.90
2019-03-23T03:13:21.750Z,91.40
2019-03-23T03:15:50.474Z,90.80
2019-03-23T03:18:19.142Z,91.60
2019-03-23T03:20:48.425Z,91.30
2019-03-23T03:23:17.162Z,91.40
2019-03-23T03:25:46.228Z,91.50
2019-03-23T03:28:14.898Z,92.10
2019-03-23T03:30:43.815Z,92.50
2019-03-23T03:33:15.893Z,92.90
2019-03-23T03:35:45.848Z,93.20
2019-03-23T03:38:14.830Z,92.50
2019-03-23T03:40:43.542Z,93.50
2019-03-23T03:43:13.641Z,94.20
2019-03-23T03:45:42.899Z,93.60
2019-03-23T03:48:11.570Z,93.90
2019-03-23T03:50:40.392Z,93.40
2019-03-23T03:53:09.134Z,93.10
2019-03-23T03:55:38.099Z,92.90
2019-03-23T03:58:09.731Z,93.20
2019-03-23T04:00:40.254Z,92.30
2019-03-23T04:03:08.974Z,92.20
2019-03-23T04:05:38.867Z,91.70
2019-03-23T04:08:11.457Z,92.60
2019-03-23T04:10:41.703Z,94.10
2019-03-23T04:13:11.552Z,93.40
2019-03-23T04:15:41.356Z,93.20
2019-03-23T04:18:10.179Z,92.90
2019-03-23T04:20:42.045Z,94.40
2019-03-23T04:23:10.756Z,93.50
2019-03-23T04:25:39.683Z,93.80
2019-03-23T04:28:08.953Z,93.10
2019-03-23T04:30:38.547Z,93.60
2019-03-23T04:33:08.670Z,93.70
2019-03-23T04:35:46.314Z,93.50
2019-03-23T04:38:22.658Z,93.30
2019-03-23T04:40:47.393Z,93.00
2019-03-23T04:43:19.480Z,92.20
2019-03-23T04:45:48.815Z,93.30
2019-03-23T04:48:20.415Z,92.80
2019-03-23T04:50:50.499Z,93.20
2019-03-23T04:53:19.347Z,93.20
2019-03-23T04:55:49.667Z,93.70
2019-03-23T04:58:20.022Z,93.40
2019-03-23T05:00:48.967Z,92.30
2019-03-23T05:03:18.418Z,91.80
2019-03-23T05:05:47.693Z,92.10
2019-03-23T05:08:20.154Z,93.50
2019-03-23T05:10:51.702Z,93.10
2019-03-23T05:13:20.487Z,92.30
2019-03-23T05:15:49.451Z,92.20
2019-03-23T05:18:18.155Z,92.30
2019-03-23T05:20:46.839Z,91.40
2019-03-23T05:23:15.735Z,91.50
2019-03-23T05:25:44.711Z,92.40
2019-03-23T05:28:13.618Z,92.80
2019-03-23T05:30:42.257Z,93.60
2019-03-23T05:33:10.942Z,93.00
2019-03-23T05:35:39.795Z,92.20
2019-03-23T05:38:08.488Z,92.30
2019-03-23T05:40:37.177Z,92.50
2019-03-23T05:43:07.830Z,92.30
2019-03-23T05:45:36.712Z,91.80
2019-03-23T05:48:05.614Z,91.20
2019-03-23T05:50:34.363Z,90.80
2019-03-23T05:53:03.174Z,90.60
2019-03-23T05:55:31.823Z,90.90
2019-03-23T05:58:02.616Z,91.70
2019-03-23T06:00:31.344Z,91.60
2019-03-23T06:03:00.191Z,91.70
2019-03-23T06:05:28.881Z,91.20
2019-03-23T06:07:57.533Z,90.90
2019-03-23T06:10:29.647Z,90.40
2019-03-23T06:12:58.421Z,90.90
2019-03-23T06:15:28.273Z,90.60
2019-03-23T06:17:57.157Z,90.40
2019-03-23T06:20:26.038Z,89.80
2019-03-23T06:22:55.901Z,90.30
2019-03-23T06:25:24.573Z,90.60
2019-03-23T06:27:53.454Z,90.60
2019-03-23T06:30:22.179Z,90.40
2019-03-23T06:32:51.126Z,90.10
2019-03-23T06:35:20.011Z,90.50
2019-03-23T06:37:48.729Z,89.20
2019-03-23T06:40:17.468Z,90.10
2019-03-23T06:42:47.354Z,90.20
2019-03-23T06:45:16.349Z,90.80
2019-03-23T06:47:45.065Z,90.60
2019-03-23T06:50:14.205Z,90.50
2019-03-23T06:52:42.940Z,90.20
2019-03-23T06:55:11.609Z,87.70
2019-03-23T06:57:40.595Z,88.80
2019-03-23T07:00:10.194Z,90.20
2019-03-23T07:02:38.899Z,89.20
2019-03-23T07:05:08.234Z,90.20
2019-03-23T07:07:37.052Z,89.80
2019-03-23T07:10:07.690Z,90.10
2019-03-23T07:12:36.812Z,90.50
2019-03-23T07:15:19.142Z,89.60
2019-03-23T07:17:38.795Z,89.70
2019-03-23T07:20:09.126Z,87.90
2019-03-23T07:22:38.100Z,88.80
2019-03-23T07:25:07.904Z,87.40
2019-03-23T07:27:36.763Z,88.10
2019-03-23T07:30:08.676Z,88.30
2019-03-23T07:32:38.814Z,87.40
2019-03-23T07:35:07.926Z,86.70
2019-03-23T07:37:36.584Z,86.70
2019-03-23T07:40:07.692Z,87.70
2019-03-23T07:42:36.366Z,87.00
2019-03-23T07:45:10.618Z,86.00
2019-03-23T07:47:39.571Z,87.70
2019-03-23T07:50:09.053Z,88.60
2019-03-23T07:52:37.708Z,86.80
2019-03-23T07:55:14.093Z,87.00
2019-03-23T07:57:42.961Z,84.40
2019-03-23T08:00:15.673Z,85.50
2019-03-23T08:02:44.345Z,86.30
2019-03-23T08:05:12.967Z,84.90
2019-03-23T08:07:41.774Z,83.40
2019-03-23T08:10:19.683Z,81.70
2019-03-23T08:12:48.479Z,81.40
2019-03-23T08:15:17.195Z,83.30
2019-03-23T08:17:45.954Z,82.40
2019-03-23T08:20:14.601Z,81.30
2019-03-23T08:22:43.445Z,81.00
2019-03-23T08:25:12.501Z,81.80
2019-03-23T08:27:41.721Z,81.80
2019-03-23T08:30:10.748Z,81.40
2019-03-23T08:32:39.461Z,81.10
2019-03-23T08:35:08.283Z,82.50
2019-03-23T08:37:36.916Z,82.00
2019-03-23T08:40:06.711Z,81.30
2019-03-23T08:42:35.473Z,81.70
2019-03-23T08:45:04.526Z,80.30
2019-03-23T08:47:33.304Z,81.60
2019-03-23T08:50:01.935Z,82.90
2019-03-23T08:52:30.710Z,81.10
2019-03-23T08:54:59.343Z,81.50
2019-03-23T08:57:28.014Z,81.60
2019-03-23T08:59:56.730Z,82.30
2019-03-23T09:02:25.395Z,81.00
2019-03-23T09:04:54.043Z,79.00
2019-03-23T09:07:22.783Z,78.20
2019-03-23T09:09:59.151Z,78.70
2019-03-23T09:12:21.997Z,78.20
2019-03-23T09:14:50.720Z,79.00
2019-03-23T09:17:19.372Z,78.30
2019-03-23T09:19:48.574Z,78.40
2019-03-23T09:22:19.285Z,77.80
2019-03-23T09:24:47.871Z,77.00
2019-03-23T09:27:16.635Z,77.50
2019-03-23T09:29:45.525Z,76.00
2019-03-23T09:32:14.192Z,76.70
2019-03-23T09:34:42.973Z,76.80
2019-03-23T09:37:11.772Z,76.10
2019-03-23T09:39:40.427Z,74.10
2019-03-23T09:42:10.485Z,73.40
2019-03-23T09:44:39.313Z,73.40
2019-03-23T09:47:08.002Z,71.40
2019-03-23T09:49:36.808Z,71.60
2019-03-23T09:52:05.452Z,71.00
2019-03-23T09:54:34.104Z,70.10
2019-03-23T09:57:02.866Z,68.90
2019-03-23T09:59:31.653Z,70.30
2019-03-23T10:02:00.337Z,70.00
2019-03-23T10:04:29.109Z,67.50
2019-03-23T10:06:57.894Z,66.90
2019-03-23T10:09:26.549Z,65.50
2019-03-23T10:11:55.216Z,66.30
2019-03-23T10:14:24.311Z,66.80
2019-03-23T10:16:52.948Z,65.20
2019-03-23T10:19:23.349Z,64.40
2019-03-23T10:21:52.313Z,64.30
2019-03-23T10:24:20.956Z,63.60
2019-03-23T10:26:52.111Z,63.20
2019-03-23T10:29:20.655Z,62.40
2019-03-23T10:31:49.451Z,62.10
2019-03-23T10:34:18.095Z,62.40
2019-03-23T10:36:46.912Z,61.20
2019-03-23T10:39:15.720Z,61.30
2019-03-23T10:41:44.473Z,59.50
2019-03-23T10:44:13.142Z,59.80
2019-03-23T10:46:42.024Z,60.40
2019-03-23T10:49:10.640Z,60.00
2019-03-23T10:51:39.402Z,60.60
2019-03-23T10:54:08.169Z,60.00
2019-03-23T10:56:36.935Z,59.50
2019-03-23T10:59:05.711Z,59.40
2019-03-23T11:01:34.450Z,57.70
2019-03-23T11:04:03.189Z,58.20
2019-03-23T11:06:31.829Z,58.80
2019-03-23T11:09:00.564Z,57.30
2019-03-23T11:11:29.182Z,58.10
2019-03-23T11:13:57.984Z,56.40
2019-03-23T11:16:26.636Z,56.10
2019-03-23T11:18:55.282Z,55.10
2019-03-23T11:21:24.083Z,54.10
2019-03-23T11:23:52.719Z,52.90
2019-03-23T11:26:21.350Z,52.50
2019-03-23T11:28:50.236Z,53.00
2019-03-23T11:31:18.921Z,54.40
2019-03-23T11:33:47.728Z,54.20
2019-03-23T11:36:16.349Z,55.30
2019-03-23T11:38:44.988Z,54.80
2019-03-23T11:41:13.769Z,55.40
2019-03-23T11:43:42.409Z,57.40
2019-03-23T11:46:11.183Z,56.40
2019-03-23T11:48:39.846Z,55.40
2019-03-23T11:51:08.768Z,55.70
2019-03-23T11:53:37.429Z,55.90
2019-03-23T11:56:06.188Z,54.90
2019-03-23T11:58:34.940Z,55.30
2019-03-23T12:01:03.599Z,55.10
2019-03-23T12:03:32.232Z,55.30
2019-03-23T12:06:00.980Z,53.90
2019-03-23T12:08:29.752Z,53.00
2019-03-23T12:11:02.845Z,54.20
2019-03-23T12:13:29.090Z,54.40
2019-03-23T12:15:57.749Z,53.90
2019-03-23T12:18:26.408Z,53.90
2019-03-23T12:20:55.148Z,53.60
2019-03-23T12:23:23.809Z,53.90
2019-03-23T12:25:52.532Z,54.60
2019-03-23T12:28:22.012Z,54.10
2019-03-23T12:30:50.716Z,55.00
2019-03-23T12:33:21.434Z,54.40
2019-03-23T12:35:50.004Z,55.10
2019-03-23T12:38:18.748Z,54.80
2019-03-23T12:40:47.524Z,56.20
2019-03-23T12:43:16.282Z,59.70
2019-03-23T12:45:46.289Z,59.50
2019-03-23T12:48:15.064Z,59.50
2019-03-23T12:50:43.704Z,58.80
2019-03-23T12:53:13.435Z,58.60
2019-03-23T12:55:42.447Z,59.70
2019-03-23T12:58:11.303Z,57.80
2019-03-23T13:00:40.046Z,58.50
2019-03-23T13:03:08.843Z,58.90
2019-03-23T13:05:37.526Z,58.80
2019-03-23T13:08:06.629Z,60.20
2019-03-23T13:10:35.302Z,60.90
2019-03-23T13:13:03.940Z,59.70
2019-03-23T13:15:32.721Z,58.30
2019-03-23T13:18:03.283Z,59.80
2019-03-23T13:20:32.146Z,60.80
2019-03-23T13:23:01.244Z,61.20
2019-03-23T13:25:30.027Z,62.50
2019-03-23T13:27:58.763Z,64.50
2019-03-23T13:30:27.625Z,64.30
2019-03-23T13:32:56.518Z,63.30
2019-03-23T13:35:25.168Z,64.00
2019-03-23T13:37:54.641Z,65.70
2019-03-23T13:40:23.704Z,66.10
2019-03-23T13:42:52.362Z,69.30
2019-03-23T13:45:21.204Z,66.80
2019-03-23T13:47:49.907Z,67.00
2019-03-23T13:50:27.390Z,67.50
2019-03-23T13:52:56.250Z,66.20
2019-03-23T13:55:28.129Z,66.40
2019-03-23T13:58:10.417Z,64.20
2019-03-23T14:00:58.453Z,65.60
2019-03-23T14:03:32.103Z,64.30
2019-03-23T14:06:02.708Z,63.30
2019-03-23T14:08:33.457Z,60.90
2019-03-23T14:11:02.334Z,59.30
2019-03-23T14:13:30.982Z,58.70
2019-03-23T14:15:59.642Z,58.70
2019-03-23T14:18:28.441Z,57.50
2019-03-23T14:20:57.103Z,56.30
2019-03-23T14:23:25.966Z,56.40
2019-03-23T14:25:54.635Z,55.20
2019-03-23T14:28:23.280Z,55.30
2019-03-23T14:30:52.143Z,55.30
2019-03-23T14:33:21.263Z,55.80
2019-03-23T14:35:50.162Z,55.60
2019-03-23T14:38:18.891Z,55.40
2019-03-23T14:40:47.722Z,55.50
2019-03-23T14:43:16.402Z,58.50
2019-03-23T14:45:45.059Z,60.50
2019-03-23T14:48:14.023Z,64.00
2019-03-23T14:50:42.892Z,64.60
2019-03-23T14:53:11.554Z,64.60
2019-03-23T14:55:40.484Z,64.20
2019-03-23T14:58:09.173Z,64.50
2019-03-23T15:00:37.961Z,64.70
2019-03-23T15:03:06.664Z,64.40
2019-03-23T15:05:37.526Z,65.70
2019-03-23T15:08:06.389Z,65.50
2019-03-23T15:10:35.230Z,65.50
2019-03-23T15:13:03.892Z,64.20
2019-03-23T15:15:32.581Z,63.00
2019-03-23T15:18:01.394Z,62.20
2019-03-23T15:20:30.083Z,59.80
2019-03-23T15:22:58.947Z,57.90
2019-03-23T15:25:27.836Z,56.20
2019-03-23T15:27:56.526Z,55.50
2019-03-23T15:30:25.248Z,55.60
2019-03-23T15:32:56.059Z,55.50
2019-03-23T15:35:24.985Z,56.20
2019-03-23T15:37:53.612Z,55.70
2019-03-23T15:40:22.445Z,54.30
2019-03-23T15:42:51.334Z,52.80
2019-03-23T15:45:20.068Z,52.30
2019-03-23T15:47:48.765Z,50.60
2019-03-23T15:50:17.614Z,48.90
2019-03-23T15:52:46.327Z,50.50
2019-03-23T15:55:15.036Z,50.30
2019-03-23T15:57:43.891Z,49.80
2019-03-23T16:00:13.778Z,47.90
2019-03-23T16:02:42.786Z,48.80
2019-03-23T16:05:12.578Z,47.30
2019-03-23T16:07:41.482Z,48.10
2019-03-23T16:10:10.808Z,48.00
2019-03-23T16:12:39.496Z,47.90
2019-03-23T16:15:10.302Z,48.30
2019-03-23T16:17:39.094Z,48.10
2019-03-23T16:20:09.222Z,47.70
2019-03-23T16:22:38.161Z,48.10
2019-03-23T16:25:08.725Z,49.20
2019-03-23T16:27:37.618Z,50.00
2019-03-23T16:30:08.910Z,47.90
2019-03-23T16:32:37.661Z,47.20
2019-03-23T16:35:07.201Z,46.30
2019-03-23T16:37:36.017Z,46.80
2019-03-23T16:40:10.999Z,46.90
2019-03-23T16:42:45.367Z,46.60
2019-03-23T16:45:10.687Z,48.50
2019-03-23T16:47:39.360Z,46.70
2019-03-23T16:50:09.649Z,46.80
2019-03-23T16:52:38.774Z,45.90
2019-03-23T16:55:09.659Z,46.40
2019-03-23T16:57:38.542Z,48.10
2019-03-23T17:00:07.979Z,48.30
2019-03-23T17:02:37.794Z,48.90
2019-03-23T17:05:06.955Z,48.80
2019-03-23T17:07:35.631Z,48.90
2019-03-23T17:10:05.252Z,48.40
2019-03-23T17:12:37.068Z,49.10
2019-03-23T17:15:06.929Z,49.20
2019-03-23T17:17:37.530Z,49.20
2019-03-23T17:20:07.876Z,49.10
2019-03-23T17:22:36.590Z,49.10
2019-03-23T17:25:05.915Z,48.80
2019-03-23T17:27:35.014Z,47.50
2019-03-23T17:30:04.395Z,48.70
2019-03-23T17:32:33.387Z,50.30
2019-03-23T17:35:02.146Z,51.10
2019-03-23T17:37:31.033Z,50.90
2019-03-23T17:39:59.951Z,50.50
2019-03-23T17:42:28.744Z,50.20
2019-03-23T17:44:57.505Z,50.40
2019-03-23T17:47:26.366Z,50.70
2019-03-23T17:49:57.311Z,51.20
2019-03-23T17:52:26.152Z,51.20
2019-03-23T17:54:55.084Z,51.50
2019-03-23T17:57:23.807Z,52.00
2019-03-23T17:59:52.490Z,51.90
2019-03-23T18:02:21.466Z,53.30
2019-03-23T18:04:51.935Z,53.80
2019-03-23T18:07:20.618Z,53.10
2019-03-23T18:09:49.515Z,53.10
2019-03-23T18:12:18.348Z,53.40
2019-03-23T18:14:47.381Z,53.50
2019-03-23T18:17:16.040Z,52.90
2019-03-23T18:19:45.700Z,53.40
2019-03-23T18:22:16.409Z,54.20
2019-03-23T18:24:45.261Z,54.30
2019-03-23T18:27:14.064Z,54.40
2019-03-23T18:29:42.990Z,54.60
2019-03-23T18:32:13.447Z,55.40
2019-03-23T18:34:44.047Z,56.10
2019-03-23T18:37:13.065Z,55.70
2019-03-23T18:39:41.711Z,54.40
2019-03-23T18:42:10.554Z,53.30
2019-03-23T18:44:39.384Z,54.20
2019-03-23T18:47:17.593Z,53.60
2019-03-23T18:49:46.726Z,53.80
2019-03-23T18:52:16.089Z,54.30
2019-03-23T18:54:45.191Z,54.00
2019-03-23T18:57:13.976Z,53.60
2019-03-23T18:59:42.862Z,55.70
2019-03-23T19:02:11.901Z,56.40
2019-03-23T19:04:40.716Z,57.30
2019-03-23T19:07:09.467Z,57.20
2019-03-23T19:09:38.226Z,58.30
2019-03-23T19:12:07.104Z,56.90
2019-03-23T19:14:35.976Z,59.10
2019-03-23T19:17:04.729Z,58.60
2019-03-23T19:19:33.800Z,58.50
2019-03-23T19:22:03.197Z,58.60
2019-03-23T19:24:31.926Z,58.70
2019-03-23T19:27:00.587Z,59.40
2019-03-23T19:29:30.245Z,59.40
2019-03-23T19:31:58.940Z,59.80
2019-03-23T19:34:27.867Z,60.00
2019-03-23T19:36:56.703Z,58.60
2019-03-23T19:39:25.475Z,60.70
2019-03-23T19:41:54.416Z,60.30
2019-03-23T19:44:23.090Z,60.90
2019-03-23T19:46:52.953Z,61.50
2019-03-23T19:49:21.866Z,59.70
2019-03-23T19:51:51.008Z,60.90
2019-03-23T19:54:19.786Z,60.30
2019-03-23T19:56:48.634Z,61.40
2019-03-23T19:59:18.472Z,61.30
2019-03-23T20:01:47.211Z,61.10
2019-03-23T20:04:15.850Z,61.00
2019-03-23T20:06:46.703Z,60.80
2019-03-23T20:09:15.367Z,61.00
2019-03-23T20:11:44.278Z,61.70
2019-03-23T20:14:13.087Z,61.90
2019-03-23T20:16:42.274Z,62.20
2019-03-23T20:19:11.499Z,63.40
2019-03-23T20:21:42.570Z,63.80
2019-03-23T20:24:11.596Z,63.70
2019-03-23T20:26:40.418Z,64.00
2019-03-23T20:29:09.303Z,64.60
2019-03-23T20:31:38.273Z,66.10
2019-03-23T20:34:07.513Z,64.80
2019-03-23T20:36:36.401Z,65.80
2019-03-23T20:39:06.778Z,66.60
2019-03-23T20:41:35.704Z,67.40
2019-03-23T20:44:09.344Z,68.00
2019-03-23T20:46:35.574Z,68.80
2019-03-23T20:49:07.202Z,68.60
2019-03-23T20:51:36.666Z,69.80
2019-03-23T20:54:05.622Z,70.20
2019-03-23T20:56:35.396Z,71.20
2019-03-23T20:59:04.312Z,71.10
2019-03-23T21:01:33.343Z,71.40
2019-03-23T21:04:02.071Z,72.10
2019-03-23T21:06:30.997Z,72.70
2019-03-23T21:09:01.693Z,71.90
2019-03-23T21:11:30.579Z,73.60
2019-03-23T21:13:59.959Z,74.60
2019-03-23T21:16:28.802Z,75.20
2019-03-23T21:18:57.806Z,75.00
2019-03-23T21:21:26.653Z,75.10
2019-03-23T21:23:55.706Z,74.00
2019-03-23T21:26:29.785Z,74.10
2019-03-23T21:28:58.556Z,74.10
2019-03-23T21:31:27.422Z,74.20
2019-03-23T21:33:56.183Z,75.40
2019-03-23T21:36:24.909Z,75.30
2019-03-23T21:38:54.005Z,75.20
2019-03-23T21:41:22.722Z,75.70
2019-03-23T21:43:51.407Z,76.20
2019-03-23T21:46:20.365Z,78.10
2019-03-23T21:48:49.026Z,77.50
2019-03-23T21:51:19.306Z,79.30
2019-03-23T21:53:48.088Z,79.40
2019-03-23T21:56:17.076Z,82.60
2019-03-23T21:58:49.188Z,82.00
2019-03-23T22:01:17.909Z,82.40
2019-03-23T22:03:46.726Z,82.50
2019-03-23T22:06:16.482Z,82.30
2019-03-23T22:08:47.248Z,82.40
2019-03-23T22:11:16.059Z,83.20
2019-03-23T22:13:44.956Z,85.30
2019-03-23T22:16:13.639Z,86.20
2019-03-23T22:18:42.878Z,87.10
2019-03-23T22:21:11.550Z,87.90
2019-03-23T22:23:40.442Z,87.60
2019-03-23T22:26:11.525Z,88.00
2019-03-23T22:28:43.408Z,88.00
2019-03-23T22:31:12.113Z,89.70
2019-03-23T22:33:42.764Z,90.50
2019-03-23T22:36:11.561Z,91.80
2019-03-23T22:38:40.271Z,91.80
2019-03-23T22:41:08.912Z,92.70
2019-03-23T22:43:37.937Z,92.60
2019-03-23T22:46:06.624Z,92.20
2019-03-23T22:48:35.310Z,91.60
2019-03-23T22:51:04.310Z,91.90
2019-03-23T22:53:32.993Z,91.40
2019-03-23T22:56:02.011Z,91.50
2019-03-23T22:58:30.738Z,92.00
2019-03-23T23:00:59.796Z,91.90
2019-03-23T23:03:30.521Z,91.40
2019-03-23T23:05:59.844Z,90.80
2019-03-23T23:08:28.824Z,91.30
2019-03-23T23:10:57.963Z,91.20
2019-03-23T23:13:26.677Z,91.90
2019-03-23T23:15:55.350Z,92.30
2019-03-23T23:18:24.211Z,92.20
2019-03-23T23:20:52.917Z,92.60
2019-03-23T23:23:21.833Z,93.10
2019-03-23T23:25:50.769Z,93.40
2019-03-23T23:28:19.507Z,92.90
2019-03-23T23:30:50.327Z,92.40
2019-03-23T23:33:19.429Z,92.00
2019-03-23T23:35:48.094Z,91.80
2019-03-23T23:38:17.117Z,91.70
2019-03-23T23:40:45.912Z,92.20
2019-03-23T23:43:15.189Z,92.70
2019-03-23T23:45:43.865Z,93.00
2019-03-23T23:48:12.683Z,93.00
2019-03-23T23:50:41.796Z,93.30
2019-03-23T23:53:11.886Z,93.80
2019-03-23T23:55:40.608Z,93.30
2019-03-23T23:58:09.516Z,93.80
